createdAt,value
2018-08-03T00:01:14.238Z,64.00
2018-08-03T00:03:44.857Z,63.70
2018-08-03T00:06:14.976Z,64.00
2018-08-03T00:08:45.093Z,64.10
2018-08-03T00:11:15.397Z,64.20
2018-08-03T00:13:45.559Z,64.30
2018-08-03T00:16:15.674Z,64.20
2018-08-03T00:18:45.840Z,64.10
2018-08-03T00:21:15.926Z,64.20
2018-08-03T00:23:46.036Z,64.20
2018-08-03T00:26:16.084Z,64.10
2018-08-03T00:28:46.151Z,64.20
2018-08-03T00:31:16.206Z,64.10
2018-08-03T00:33:46.299Z,64.20
2018-08-03T00:36:16.411Z,65.00
2018-08-03T00:38:46.819Z,64.20
2018-08-03T00:41:16.912Z,64.60
2018-08-03T00:43:47.490Z,64.90
2018-08-03T00:46:18.282Z,64.30
2018-08-03T00:48:48.414Z,64.40
2018-08-03T00:51:19.102Z,64.20
2018-08-03T00:53:49.168Z,64.30
2018-08-03T00:56:19.400Z,64.40
2018-08-03T00:58:49.494Z,64.50
2018-08-03T01:01:19.657Z,64.50
2018-08-03T01:03:49.868Z,64.00
2018-08-03T01:06:20.098Z,63.70
2018-08-03T01:08:50.146Z,63.30
2018-08-03T01:11:20.320Z,63.30
2018-08-03T01:13:50.686Z,63.30
2018-08-03T01:16:20.918Z,63.40
2018-08-03T01:18:51.040Z,63.30
2018-08-03T01:21:21.162Z,63.30
2018-08-03T01:23:51.294Z,63.20
2018-08-03T01:26:21.478Z,63.20
2018-08-03T01:28:52.160Z,63.20
2018-08-03T01:31:22.308Z,63.10
2018-08-03T01:33:53.976Z,63.20
2018-08-03T01:36:24.159Z,64.00
2018-08-03T01:38:54.332Z,63.30
2018-08-03T01:41:24.838Z,63.40
2018-08-03T01:43:54.970Z,64.40
2018-08-03T01:46:25.076Z,63.60
2018-08-03T01:48:55.284Z,63.70
2018-08-03T01:51:25.466Z,63.70
2018-08-03T01:53:55.550Z,63.70
2018-08-03T01:56:25.756Z,63.80
2018-08-03T01:58:55.839Z,63.80
2018-08-03T02:01:26.456Z,63.90
2018-08-03T02:03:56.534Z,64.10
2018-08-03T02:08:58.499Z,64.50
2018-08-03T02:11:28.682Z,64.70
2018-08-03T02:13:58.843Z,65.40
2018-08-03T02:16:29.062Z,64.70
2018-08-03T02:18:59.186Z,64.90
2018-08-03T02:21:29.329Z,65.00
2018-08-03T02:23:59.547Z,65.20
2018-08-03T02:26:29.643Z,65.00
2018-08-03T02:28:59.789Z,65.00
2018-08-03T02:31:29.888Z,65.30
2018-08-03T02:34:00.166Z,65.40
2018-08-03T02:36:30.317Z,65.40
2018-08-03T02:39:00.497Z,64.80
2018-08-03T02:41:30.637Z,64.70
2018-08-03T02:44:00.695Z,64.70
2018-08-03T02:46:30.915Z,64.90
2018-08-03T02:49:01.010Z,65.00
2018-08-03T02:51:31.117Z,64.90
2018-08-03T02:54:01.250Z,65.20
2018-08-03T02:56:31.473Z,65.20
2018-08-03T02:59:02.211Z,65.20
2018-08-03T03:01:32.389Z,65.30
2018-08-03T03:04:02.518Z,65.20
2018-08-03T03:06:32.563Z,65.20
2018-08-03T03:09:02.729Z,65.50
2018-08-03T03:11:32.873Z,65.60
2018-08-03T03:14:03.003Z,65.90
2018-08-03T03:16:33.195Z,66.00
2018-08-03T03:19:03.379Z,66.20
2018-08-03T03:21:33.604Z,66.40
2018-08-03T03:24:04.313Z,66.30
2018-08-03T03:26:34.425Z,66.30
2018-08-03T03:29:04.602Z,66.40
2018-08-03T03:31:34.779Z,66.60
2018-08-03T03:34:04.900Z,66.70
2018-08-03T03:36:34.979Z,66.80
2018-08-03T03:39:09.058Z,66.70
2018-08-03T03:41:39.367Z,66.70
2018-08-03T03:44:10.313Z,66.80
2018-08-03T03:46:40.605Z,66.90
2018-08-03T03:49:10.672Z,66.90
2018-08-03T03:51:40.783Z,67.60
2018-08-03T03:54:11.063Z,66.80
2018-08-03T03:56:41.791Z,66.80
2018-08-03T03:59:11.930Z,67.10
2018-08-03T04:01:42.030Z,67.40
2018-08-03T04:04:12.072Z,67.40
2018-08-03T04:06:42.275Z,67.60
2018-08-03T04:09:13.349Z,67.60
2018-08-03T04:11:44.000Z,67.70
2018-08-03T04:14:14.233Z,67.70
2018-08-03T04:16:44.402Z,67.60
2018-08-03T04:21:44.757Z,67.60
2018-08-03T04:24:14.840Z,67.60
2018-08-03T04:26:45.012Z,67.60
2018-08-03T04:29:15.122Z,67.70
2018-08-03T04:31:45.234Z,67.90
2018-08-03T04:34:15.927Z,67.60
2018-08-03T04:36:46.114Z,67.50
2018-08-03T04:39:16.266Z,67.40
2018-08-03T04:41:46.548Z,67.50
2018-08-03T04:44:16.946Z,67.30
2018-08-03T04:46:47.044Z,67.10
2018-08-03T04:49:17.205Z,67.10
2018-08-03T04:51:47.444Z,66.90
2018-08-03T04:54:17.728Z,66.90
2018-08-03T04:56:47.886Z,67.00
2018-08-03T04:59:17.974Z,67.00
2018-08-03T05:01:48.623Z,67.20
2018-08-03T05:04:18.826Z,67.10
2018-08-03T05:06:48.927Z,67.00
2018-08-03T05:09:19.000Z,66.70
2018-08-03T05:11:49.134Z,66.20
2018-08-03T05:14:19.870Z,66.90
2018-08-03T05:16:49.972Z,66.00
2018-08-03T05:19:20.093Z,65.90
2018-08-03T05:21:50.183Z,65.80
2018-08-03T05:24:29.946Z,65.70
2018-08-03T05:27:00.170Z,65.90
2018-08-03T05:29:30.385Z,65.90
2018-08-03T05:32:00.649Z,65.80
2018-08-03T05:34:31.702Z,65.90
2018-08-03T05:37:01.957Z,66.20
2018-08-03T05:39:32.014Z,66.10
2018-08-03T05:42:02.118Z,66.70
2018-08-03T05:44:35.869Z,65.70
2018-08-03T05:47:06.410Z,65.70
2018-08-03T05:49:36.578Z,65.60
2018-08-03T05:52:06.732Z,65.60
2018-08-03T05:54:37.520Z,66.30
2018-08-03T05:57:07.779Z,65.50
2018-08-03T05:59:37.814Z,65.30
2018-08-03T06:02:07.980Z,65.00
2018-08-03T06:04:38.325Z,64.60
2018-08-03T06:07:08.960Z,64.50
2018-08-03T06:09:39.237Z,64.50
2018-08-03T06:12:09.821Z,64.60
2018-08-03T06:14:42.729Z,64.60
2018-08-03T06:17:12.839Z,64.50
2018-08-03T06:19:42.941Z,64.10
2018-08-03T06:22:13.129Z,63.90
2018-08-03T06:24:43.226Z,63.70
2018-08-03T06:27:13.397Z,63.20
2018-08-03T06:29:43.498Z,63.00
2018-08-03T06:32:14.288Z,62.90
2018-08-03T06:34:44.389Z,62.90
2018-08-03T06:37:14.411Z,62.60
2018-08-03T06:39:44.543Z,62.30
2018-08-03T06:42:14.658Z,62.20
2018-08-03T06:44:45.376Z,62.00
2018-08-03T06:47:15.551Z,61.90
2018-08-03T06:49:45.647Z,61.60
2018-08-03T06:52:15.859Z,61.50
2018-08-03T06:54:53.280Z,61.30
2018-08-03T06:57:23.368Z,61.10
2018-08-03T06:59:53.535Z,60.60
2018-08-03T07:02:23.683Z,60.40
2018-08-03T07:04:53.862Z,59.80
2018-08-03T07:07:24.024Z,59.60
2018-08-03T07:09:54.143Z,59.70
2018-08-03T07:12:24.290Z,59.70
2018-08-03T07:14:54.498Z,59.90
2018-08-03T07:17:24.655Z,59.70
2018-08-03T07:19:54.879Z,59.70
2018-08-03T07:22:24.892Z,59.60
2018-08-03T07:24:55.481Z,59.50
2018-08-03T07:27:26.087Z,59.50
2018-08-03T07:29:56.180Z,59.50
2018-08-03T07:32:26.379Z,59.30
2018-08-03T07:34:56.500Z,59.30
2018-08-03T07:37:26.638Z,59.30
2018-08-03T07:39:56.790Z,59.20
2018-08-03T07:42:26.901Z,59.70
2018-08-03T07:44:57.010Z,59.00
2018-08-03T07:47:27.055Z,58.90
2018-08-03T07:49:57.136Z,58.70
2018-08-03T07:54:57.016Z,58.70
2018-08-03T07:57:27.219Z,58.60
2018-08-03T07:59:57.343Z,58.40
2018-08-03T08:02:27.537Z,58.20
2018-08-03T08:04:57.606Z,57.90
2018-08-03T08:07:27.833Z,57.80
2018-08-03T08:09:58.171Z,57.80
2018-08-03T08:12:28.262Z,57.50
2018-08-03T08:14:58.383Z,57.20
2018-08-03T08:17:28.562Z,57.20
2018-08-03T08:19:58.660Z,56.80
2018-08-03T08:22:28.793Z,56.60
2018-08-03T08:24:59.174Z,56.50
2018-08-03T08:27:29.392Z,56.40
2018-08-03T08:29:59.504Z,56.10
2018-08-03T08:32:29.552Z,55.90
2018-08-03T08:34:59.589Z,55.70
2018-08-03T08:37:29.728Z,55.60
2018-08-03T08:39:59.797Z,55.70
2018-08-03T08:42:29.864Z,55.80
2018-08-03T08:44:59.925Z,55.70
2018-08-03T08:47:30.153Z,55.10
2018-08-03T08:50:00.208Z,55.50
2018-08-03T08:52:30.328Z,55.00
2018-08-03T08:55:00.472Z,55.10
2018-08-03T08:57:30.610Z,54.80
2018-08-03T09:00:00.720Z,54.60
2018-08-03T09:02:30.856Z,54.70
2018-08-03T09:05:00.966Z,54.40
2018-08-03T09:07:31.114Z,54.00
2018-08-03T09:10:01.013Z,54.00
2018-08-03T09:12:31.157Z,54.00
2018-08-03T09:15:01.163Z,54.10
2018-08-03T09:17:31.331Z,53.70
2018-08-03T09:20:01.402Z,53.60
2018-08-03T09:22:31.817Z,53.60
2018-08-03T09:25:01.901Z,53.30
2018-08-03T09:27:32.555Z,52.90
2018-08-03T09:30:02.602Z,52.70
2018-08-03T09:32:32.697Z,52.50
2018-08-03T09:35:02.747Z,52.70
2018-08-03T09:37:32.898Z,52.50
2018-08-03T09:40:03.105Z,52.30
2018-08-03T09:42:33.827Z,52.20
2018-08-03T09:45:04.796Z,52.00
2018-08-03T09:47:34.891Z,52.00
2018-08-03T09:50:05.505Z,52.00
2018-08-03T09:52:36.065Z,51.70
2018-08-03T09:55:07.068Z,51.40
2018-08-03T09:57:37.192Z,51.00
2018-08-03T10:02:36.988Z,51.10
2018-08-03T10:05:07.101Z,50.80
2018-08-03T10:07:37.257Z,50.00
2018-08-03T10:10:07.960Z,49.40
2018-08-03T10:12:38.134Z,48.80
2018-08-03T10:15:08.273Z,48.30
2018-08-03T10:17:38.353Z,48.00
2018-08-03T10:20:08.794Z,48.20
2018-08-03T10:22:39.298Z,48.00
2018-08-03T10:25:09.296Z,47.90
2018-08-03T10:27:39.401Z,47.80
2018-08-03T10:30:09.534Z,47.40
2018-08-03T10:32:39.721Z,46.30
2018-08-03T10:35:10.866Z,45.50
2018-08-03T10:37:40.881Z,45.30
2018-08-03T10:40:11.315Z,45.40
2018-08-03T10:42:41.438Z,44.60
2018-08-03T10:45:11.499Z,44.00
2018-08-03T10:47:41.865Z,44.40
2018-08-03T10:50:11.940Z,44.70
2018-08-03T10:52:42.721Z,45.10
2018-08-03T10:55:13.009Z,45.30
2018-08-03T10:57:43.063Z,44.80
2018-08-03T11:00:28.259Z,43.80
2018-08-03T11:02:59.131Z,42.70
2018-08-03T11:05:29.631Z,42.60
2018-08-03T11:07:59.711Z,42.70
2018-08-03T11:10:29.719Z,42.70
2018-08-03T11:12:59.963Z,42.30
2018-08-03T11:15:30.091Z,43.30
2018-08-03T11:18:00.249Z,42.80
2018-08-03T11:20:30.325Z,43.20
2018-08-03T11:23:00.978Z,43.50
2018-08-03T11:25:31.039Z,43.50
2018-08-03T11:28:01.259Z,43.20
2018-08-03T11:30:31.345Z,43.10
2018-08-03T11:33:01.410Z,42.60
2018-08-03T11:35:31.599Z,42.70
2018-08-03T11:38:01.719Z,43.00
2018-08-03T11:40:31.950Z,44.20
2018-08-03T11:43:01.981Z,43.50
2018-08-03T11:45:32.147Z,43.20
2018-08-03T11:48:02.307Z,42.80
2018-08-03T11:50:33.021Z,42.60
2018-08-03T11:53:04.029Z,42.10
2018-08-03T11:55:34.058Z,42.10
2018-08-03T11:58:04.191Z,42.20
2018-08-03T12:00:34.278Z,42.10
2018-08-03T12:03:04.437Z,42.10
2018-08-03T12:05:34.551Z,41.90
2018-08-03T12:08:04.609Z,41.70
2018-08-03T12:10:34.909Z,41.10
2018-08-03T12:13:05.095Z,40.70
2018-08-03T12:15:36.055Z,40.00
2018-08-03T12:18:06.153Z,39.80
2018-08-03T12:20:36.272Z,39.70
2018-08-03T12:23:06.411Z,39.80
2018-08-03T12:25:36.545Z,39.70
2018-08-03T12:28:06.703Z,39.60
2018-08-03T12:30:36.788Z,39.50
2018-08-03T12:33:07.047Z,39.10
2018-08-03T12:35:37.171Z,38.60
2018-08-03T12:38:07.545Z,37.90
2018-08-03T12:40:37.745Z,37.90
2018-08-03T12:43:07.844Z,38.60
2018-08-03T12:45:37.838Z,38.90
2018-08-03T12:48:08.005Z,39.70
2018-08-03T12:50:38.279Z,39.90
2018-08-03T12:53:08.459Z,40.10
2018-08-03T12:55:39.061Z,40.10
2018-08-03T12:58:09.445Z,40.10
2018-08-03T13:00:39.649Z,39.90
2018-08-03T13:03:09.763Z,39.80
2018-08-03T13:05:39.957Z,39.30
2018-08-03T13:08:10.850Z,39.10
2018-08-03T13:10:40.828Z,39.40
2018-08-03T13:13:11.042Z,39.90
2018-08-03T13:15:41.278Z,39.60
2018-08-03T13:18:11.487Z,39.80
2018-08-03T13:20:41.614Z,39.90
2018-08-03T13:23:11.846Z,39.80
2018-08-03T13:25:41.973Z,39.40
2018-08-03T13:28:12.223Z,39.00
2018-08-03T13:30:42.498Z,38.60
2018-08-03T13:33:12.759Z,38.70
2018-08-03T13:35:42.750Z,38.80
2018-08-03T13:38:12.951Z,38.70
2018-08-03T13:40:44.032Z,38.60
2018-08-03T13:43:14.151Z,38.20
2018-08-03T13:45:44.380Z,38.00
2018-08-03T13:48:14.566Z,37.90
2018-08-03T13:50:44.594Z,37.90
2018-08-03T13:53:15.684Z,37.40
2018-08-03T13:55:45.742Z,37.00
2018-08-03T13:58:15.808Z,37.50
2018-08-03T14:00:45.893Z,36.70
2018-08-03T14:03:16.111Z,36.40
2018-08-03T14:05:46.173Z,36.10
2018-08-03T14:08:16.249Z,35.70
2018-08-03T14:10:46.434Z,35.60
2018-08-03T14:13:16.534Z,35.70
2018-08-03T14:15:46.625Z,34.80
2018-08-03T14:18:16.745Z,35.10
2018-08-03T14:20:46.868Z,35.10
2018-08-03T14:23:17.295Z,35.00
2018-08-03T14:25:47.739Z,35.40
2018-08-03T14:28:17.992Z,36.50
2018-08-03T14:30:48.115Z,36.00
2018-08-03T14:33:18.274Z,35.80
2018-08-03T14:35:48.488Z,35.90
2018-08-03T14:38:18.679Z,36.30
2018-08-03T14:40:48.994Z,36.70
2018-08-03T14:43:19.164Z,37.00
2018-08-03T14:45:49.388Z,37.20
2018-08-03T14:48:19.608Z,37.30
2018-08-03T14:50:49.759Z,36.80
2018-08-03T14:53:20.479Z,36.80
2018-08-03T14:55:50.595Z,35.90
2018-08-03T14:58:20.805Z,35.60
2018-08-03T15:00:50.961Z,34.60
2018-08-03T15:03:21.261Z,34.50
2018-08-03T15:05:51.387Z,33.30
2018-08-03T15:08:21.566Z,33.10
2018-08-03T15:10:51.707Z,33.40
2018-08-03T15:13:21.931Z,34.00
2018-08-03T15:15:52.123Z,30.80
2018-08-03T15:18:22.433Z,27.50
2018-08-03T15:20:52.521Z,27.40
2018-08-03T15:23:22.605Z,28.20
2018-08-03T15:25:52.676Z,28.80
2018-08-03T15:28:23.625Z,27.20
2018-08-03T15:33:24.541Z,22.90
2018-08-03T15:35:55.157Z,21.50
2018-08-03T15:38:25.285Z,20.60
2018-08-03T15:40:55.463Z,20.00
2018-08-03T15:43:25.694Z,19.10
2018-08-03T15:45:57.357Z,17.90
2018-08-03T15:48:27.711Z,17.30
2018-08-03T15:50:57.913Z,16.90
2018-08-03T15:53:28.007Z,16.90
2018-08-03T15:55:58.346Z,16.80
2018-08-03T15:58:28.515Z,16.60
2018-08-03T16:00:58.613Z,18.00
2018-08-03T16:03:28.693Z,20.10
2018-08-03T16:05:58.861Z,20.80
2018-08-03T16:08:30.130Z,22.00
2018-08-03T16:11:00.292Z,23.20
2018-08-03T16:13:30.444Z,23.80
2018-08-03T16:16:00.571Z,24.50
2018-08-03T16:18:30.723Z,25.00
2018-08-03T16:21:00.845Z,25.50
2018-08-03T16:23:31.095Z,26.00
2018-08-03T16:26:01.185Z,26.00
2018-08-03T16:28:32.329Z,26.30
2018-08-03T16:31:02.751Z,26.70
2018-08-03T16:33:32.909Z,27.20
2018-08-03T16:36:02.968Z,27.60
2018-08-03T16:38:33.138Z,27.90
2018-08-03T16:41:03.265Z,28.30
2018-08-03T16:43:34.024Z,28.70
2018-08-03T16:46:04.094Z,29.00
2018-08-03T16:48:34.826Z,29.30
2018-08-03T16:51:05.062Z,29.30
2018-08-03T16:53:35.658Z,29.60
2018-08-03T16:56:06.022Z,29.70
2018-08-03T16:58:36.350Z,29.90
2018-08-03T17:01:06.496Z,30.00
2018-08-03T17:03:37.419Z,30.20
2018-08-03T17:06:07.587Z,30.40
2018-08-03T17:08:37.732Z,30.60
2018-08-03T17:11:08.432Z,30.90
2018-08-03T17:13:38.686Z,31.10
2018-08-03T17:16:09.550Z,31.20
2018-08-03T17:18:40.452Z,30.80
2018-08-03T17:21:10.746Z,30.90
2018-08-03T17:23:40.966Z,31.00
2018-08-03T17:26:11.066Z,31.70
2018-08-03T17:28:41.259Z,33.00
2018-08-03T17:31:11.440Z,33.90
2018-08-03T17:33:41.560Z,34.90
2018-08-03T17:36:11.702Z,35.60
2018-08-03T17:38:42.714Z,36.50
2018-08-03T17:41:12.783Z,37.40
2018-08-03T17:43:43.013Z,38.30
2018-08-03T17:46:13.123Z,39.40
2018-08-03T17:48:43.185Z,39.90
2018-08-03T17:51:13.260Z,40.70
2018-08-03T17:53:43.384Z,41.60
2018-08-03T17:56:13.510Z,42.20
2018-08-03T17:58:43.692Z,42.90
2018-08-03T18:01:13.996Z,43.40
2018-08-03T18:03:44.123Z,44.20
2018-08-03T18:06:14.283Z,45.30
2018-08-03T18:08:44.535Z,47.10
2018-08-03T18:11:14.629Z,50.00
2018-08-03T18:13:44.834Z,52.80
2018-08-03T18:16:14.937Z,55.50
2018-08-03T18:18:45.080Z,59.40
2018-08-03T18:21:15.812Z,65.30
2018-08-03T18:23:46.196Z,69.70
2018-08-03T18:26:16.237Z,72.60
2018-08-03T18:28:46.524Z,73.70
2018-08-03T18:31:16.743Z,75.10
2018-08-03T18:33:47.015Z,76.30
2018-08-03T18:36:17.125Z,77.40
2018-08-03T18:38:47.235Z,78.70
2018-08-03T18:41:17.583Z,79.70
2018-08-03T18:43:47.777Z,80.20
2018-08-03T18:46:18.190Z,80.90
2018-08-03T18:48:48.292Z,81.80
2018-08-03T18:51:18.882Z,82.20
2018-08-03T18:53:49.028Z,82.30
2018-08-03T18:56:19.216Z,83.00
2018-08-03T18:58:49.411Z,83.20
2018-08-03T19:01:19.523Z,83.30
2018-08-03T19:03:49.798Z,83.60
2018-08-03T19:06:19.988Z,83.80
2018-08-03T19:08:50.183Z,84.00
2018-08-03T19:11:20.580Z,83.80
2018-08-03T19:13:50.841Z,84.20
2018-08-03T19:16:20.974Z,84.50
2018-08-03T19:18:51.041Z,85.00
2018-08-03T19:21:21.195Z,84.70
2018-08-03T19:23:51.343Z,84.80
2018-08-03T19:26:21.493Z,84.70
2018-08-03T19:28:51.719Z,84.50
2018-08-03T19:33:51.652Z,84.50
2018-08-03T19:36:21.785Z,83.60
2018-08-03T19:38:52.045Z,84.00
2018-08-03T19:41:22.354Z,84.00
2018-08-03T19:43:52.467Z,84.30
2018-08-03T19:46:22.694Z,84.00
2018-08-03T19:48:52.864Z,83.80
2018-08-03T19:51:22.942Z,83.90
2018-08-03T19:53:53.130Z,84.70
2018-08-03T19:56:23.248Z,84.30
2018-08-03T19:58:53.619Z,84.20
2018-08-03T20:01:24.263Z,84.20
2018-08-03T20:03:54.750Z,84.20
2018-08-03T20:06:24.885Z,84.30
2018-08-03T20:08:55.121Z,84.90
2018-08-03T20:11:25.187Z,84.50
2018-08-03T20:13:55.492Z,84.70
2018-08-03T20:16:25.613Z,84.50
2018-08-03T20:18:55.833Z,84.30
2018-08-03T20:21:26.521Z,83.80
2018-08-03T20:23:56.907Z,83.90
2018-08-03T20:26:27.169Z,83.60
2018-08-03T20:28:57.490Z,84.40
2018-08-03T20:31:27.713Z,85.30
2018-08-03T20:33:57.932Z,85.40
2018-08-03T20:36:28.810Z,85.60
2018-08-03T20:38:59.339Z,85.50
2018-08-03T20:41:29.975Z,85.40
2018-08-03T20:44:00.179Z,84.70
2018-08-03T20:46:30.336Z,85.00
2018-08-03T20:49:00.456Z,85.40
2018-08-03T20:51:30.809Z,84.80
2018-08-03T20:54:01.154Z,84.70
2018-08-03T20:56:31.397Z,79.60
2018-08-03T20:59:01.584Z,77.30
2018-08-03T21:01:31.812Z,74.90
2018-08-03T21:04:01.906Z,75.30
2018-08-03T21:06:32.134Z,77.40
2018-08-03T21:09:02.182Z,79.90
2018-08-03T21:11:32.318Z,79.20
2018-08-03T21:14:02.449Z,80.40
2018-08-03T21:16:32.702Z,79.90
2018-08-03T21:19:03.498Z,77.50
2018-08-03T21:21:34.040Z,76.60
2018-08-03T21:24:04.867Z,77.20
2018-08-03T21:26:35.530Z,78.70
2018-08-03T21:29:06.235Z,80.50
2018-08-03T21:31:36.439Z,81.40
2018-08-03T21:34:06.726Z,80.10
2018-08-03T21:36:36.805Z,80.30
2018-08-03T21:39:10.724Z,80.90
2018-08-03T21:41:41.084Z,81.40
2018-08-03T21:44:11.361Z,79.10
2018-08-03T21:46:41.596Z,77.50
2018-08-03T21:49:11.797Z,78.10
2018-08-03T21:51:41.839Z,76.00
2018-08-03T21:54:11.917Z,75.50
2018-08-03T21:56:41.955Z,78.10
2018-08-03T21:59:12.145Z,79.30
2018-08-03T22:01:42.281Z,79.50
2018-08-03T22:04:12.445Z,80.00
2018-08-03T22:06:42.517Z,80.00
2018-08-03T22:09:12.607Z,81.00
2018-08-03T22:11:42.689Z,81.30
2018-08-03T22:14:12.775Z,80.70
2018-08-03T22:16:42.859Z,77.60
2018-08-03T22:19:12.905Z,76.20
2018-08-03T22:21:43.083Z,75.60
2018-08-03T22:24:13.258Z,75.40
2018-08-03T22:26:43.466Z,76.50
2018-08-03T22:29:13.504Z,76.20
2018-08-03T22:31:43.752Z,76.90
2018-08-03T22:34:13.822Z,77.90
2018-08-03T22:36:43.957Z,78.70
2018-08-03T22:39:14.600Z,78.70
2018-08-03T22:41:44.651Z,79.90
2018-08-03T22:44:14.750Z,80.10
2018-08-03T22:46:44.846Z,80.30
2018-08-03T22:49:15.031Z,79.20
2018-08-03T22:51:45.051Z,76.80
2018-08-03T22:54:15.688Z,76.10
2018-08-03T22:56:45.760Z,74.40
2018-08-03T22:59:15.957Z,75.40
2018-08-03T23:01:46.040Z,75.90
2018-08-03T23:04:16.544Z,76.50
2018-08-03T23:06:46.674Z,77.00
2018-08-03T23:09:17.140Z,77.40
2018-08-03T23:11:47.364Z,78.90
2018-08-03T23:14:19.820Z,79.30
2018-08-03T23:16:50.364Z,79.40
2018-08-03T23:19:20.932Z,79.40
2018-08-03T23:21:51.178Z,80.10
2018-08-03T23:24:21.232Z,80.00
2018-08-03T23:26:51.420Z,79.70
2018-08-03T23:29:21.624Z,79.80
2018-08-03T23:31:51.718Z,79.30
2018-08-03T23:34:21.780Z,79.70
2018-08-03T23:36:51.970Z,80.20
2018-08-03T23:39:22.699Z,80.80
2018-08-03T23:41:52.921Z,81.20
2018-08-03T23:44:23.015Z,80.60
2018-08-03T23:46:53.291Z,79.70
2018-08-03T23:49:23.404Z,80.00
2018-08-03T23:51:53.646Z,80.00
2018-08-03T23:54:23.691Z,79.70
2018-08-03T23:56:53.812Z,80.10
2018-08-03T23:59:24.018Z,80.60
